Time;durP1;ratioP1;P1;durP2;ratioP2;P2;SDS_P1;SDS_P2;PMS_P1;PMS_P2;Temp;Humidity;BMP_temperature;BMP_pressure;BME280_temperature;BME280_humidity;BME280_pressure;Samples;Min_cycle;Max_cycle;Signal;HPM_P1;HPM_P2
2021/10/02 00:34:26;;;;;;;;;;;;;;;9.46;64.93;99899.16;4970786;28;20027;-77
2021/10/02 00:45:32;;;;;;;1.05;0.45;;;;;;;9.37;65.47;99840.75;4973892;28;20030;-80
2021/10/02 00:47:58;;;;;;;1.75;0.60;;;;;;;9.52;65.33;99867.22;4970919;28;20086;-78
2021/10/02 00:53:42;;;;;;;0.73;0.20;;;;;;;9.44;65.66;99841.31;4975707;28;20109;-78
2021/10/02 00:56:11;;;;;;;0.40;0.30;;;;;;;9.48;65.15;99845.13;4961221;28;20031;-78
2021/10/02 00:58:37;;;;;;;0.30;0.30;;;;;;;9.37;65.50;99836.09;4954489;28;20035;-78
2021/10/02 01:01:05;;;;;;;0.40;0.30;;;;;;;9.52;65.37;99843.50;4955954;28;20038;-77
2021/10/02 01:03:45;;;;;;;;;;;;;;;;;;;;;
2021/10/02 01:06:43;;;;;;;;;;;;;;;;;;;;;
2021/10/02 01:09:37;;;;;;;2.30;0.63;;;;;;;9.56;65.33;99852.78;4981607;28;20041;-78
2021/10/02 01:12:32;;;;;;;;;;;;;;;;;;;;;
2021/10/02 01:15:27;;;;;;;3.60;0.57;;;;;;;9.51;65.42;99841.84;4971466;28;20022;-79
2021/10/02 01:18:26;;;;;;;0.47;0.38;;;;;;;9.32;65.70;99802.56;4971975;28;20066;-77
2021/10/02 01:21:11;;;;;;;;;;;;;;;;;;;;;
2021/10/02 01:24:16;;;;;;;0.50;0.28;;;;;;;9.39;65.70;99816.75;4975509;28;20424;-78
2021/10/02 01:27:11;;;;;;;3.78;0.82;;;;;;;9.42;65.66;99827.13;4958640;28;20031;-78
2021/10/02 01:29:38;;;;;;;0.98;0.90;;;;;;;9.34;66.19;99808.56;4965056;28;20392;-77
2021/10/02 01:49:29;;;;;;;4.35;0.68;;;;;;;9.39;66.09;99751.28;4951433;28;20046;-76
2021/10/02 01:51:56;;;;;;;2.40;0.60;;;;;;;9.47;66.61;99764.34;4947969;28;20030;-79
2021/10/02 01:54:30;;;;;;;1.10;0.52;;;;;;;9.52;66.23;99772.53;4966252;28;20041;-75
2021/10/02 01:56:57;;;;;;;1.27;0.17;;;;;;;9.38;66.26;99730.53;4954856;28;20366;-74
2021/10/02 01:59:26;;;;;;;0.30;0.25;;;;;;;9.46;66.27;99729.13;4970330;28;20037;-74
2021/10/02 02:01:52;;;;;;;4.10;0.82;;;;;;;9.51;66.20;99740.88;4974801;28;20027;-73
2021/10/02 02:04:28;;;;;;;1.83;0.77;;;;;;;9.48;66.68;99724.25;4975889;28;20035;-75
2021/10/02 02:06:57;;;;;;;0.82;0.82;;;;;;;9.49;66.49;99723.13;4977286;28;20095;-75
2021/10/02 02:09:38;;;;;;;0.95;0.40;;;;;;;9.48;66.64;99716.84;4959700;28;20038;-75
2021/10/02 02:12:12;;;;;;;3.60;1.05;;;;;;;9.48;66.47;99711.41;4945841;28;20030;-73
2021/10/02 02:14:43;;;;;;;1.67;0.50;;;;;;;9.46;66.36;99691.75;4969315;28;20077;-76
2021/10/02 02:17:27;;;;;;;0.90;0.38;;;;;;;9.52;66.59;99701.56;4956052;28;20122;-75
2021/10/02 02:19:56;;;;;;;0.55;0.40;;;;;;;9.55;66.69;99700.19;4972535;28;20155;-78
2021/10/02 02:22:39;;;;;;;0.40;0.40;;;;;;;9.54;66.38;99684.91;4954908;28;20038;-74
2021/10/02 02:25:05;;;;;;;0.65;0.38;;;;;;;9.55;66.54;99694.72;4959196;28;20101;-76
2021/10/02 02:27:39;;;;;;;1.25;0.35;;;;;;;9.53;66.62;99681.34;4979644;28;20019;-73
2021/10/02 02:30:07;;;;;;;2.72;0.50;;;;;;;9.55;66.52;99670.16;4988795;28;20034;-74
2021/10/02 02:32:53;;;;;;;;;;;;;;;;;;;;;
2021/10/02 02:35:26;;;;;;;;;;;;;;;9.75;66.31;99677.47;4973628;28;20105;-74
2021/10/02 02:37:53;;;;;;;2.30;0.52;;;;;;;9.71;66.13;99666.31;4960455;28;19918;-78
2021/10/02 02:43:09;;;;;;;0.43;0.40;;;;;;;9.71;66.12;99657.28;4954507;28;20110;-78
2021/10/02 02:45:59;;;;;;;1.70;0.40;;;;;;;9.60;66.46;99635.47;4952600;28;20109;-80
2021/10/02 02:48:32;;;;;;;0.55;0.40;;;;;;;9.70;66.65;99653.75;4974354;28;20022;-79
2021/10/02 02:51:17;;;;;;;7.78;1.83;;;;;;;9.65;66.73;99636.56;4954379;28;20046;-78
2021/10/02 02:53:59;;;;;;;0.32;0.32;;;;;;;9.70;66.56;99636.56;4975341;28;20073;-78
2021/10/02 02:56:33;;;;;;;0.60;0.35;;;;;;;9.74;66.24;99637.63;4963183;28;20082;-79
2021/10/02 02:59:06;;;;;;;0.95;0.30;;;;;;;9.74;66.62;99627.50;4962357;28;20046;-78
2021/10/02 03:01:55;;;;;;;1.67;0.70;;;;;;;9.69;66.56;99618.53;4963271;28;20046;-79
2021/10/02 03:04:28;;;;;;;4.47;0.20;;;;;;;9.59;66.62;99598.38;4956834;28;20035;-77
2021/10/02 03:06:55;;;;;;;2.60;0.40;;;;;;;9.63;66.50;99595.09;4961824;28;20057;-76
2021/10/02 03:09:51;;;;;;;;;;;;;;;;;;;;;
2021/10/02 03:12:35;;;;;;;;;;;;;;;;;;;;;
2021/10/02 03:15:02;;;;;;;0.68;0.20;;;;;;;9.79;66.62;99602.09;4970216;28;20117;-77
2021/10/02 03:17:31;;;;;;;1.00;0.30;;;;;;;9.80;66.57;99598.28;4938486;28;20066;-78
2021/10/02 03:20:09;;;;;;;;;;;;;;;;;;;;;
2021/10/02 03:23:08;;;;;;;0.70;0.40;;;;;;;9.73;66.59;99568.53;4987086;28;20069;-77
2021/10/02 03:25:45;;;;;;;;;;;;;;;;;;;;;
2021/10/02 03:28:14;;;;;;;0.25;0.20;;;;;;;9.83;66.53;99562.22;4988512;28;20045;-78
2021/10/02 03:31:00;;;;;;;0.80;0.38;;;;;;;9.85;66.43;99557.28;4963907;28;20030;-78
2021/10/02 03:33:27;;;;;;;0.57;0.20;;;;;;;9.89;66.49;99547.44;4962454;28;20045;-79
2021/10/02 03:35:53;;;;;;;0.80;0.40;;;;;;;9.82;66.55;99530.53;4962208;28;20482;-79
2021/10/02 03:38:19;;;;;;;0.38;0.20;;;;;;;9.89;66.54;99528.31;4981441;28;20030;-80
2021/10/02 03:40:51;;;;;;;0.10;0.10;;;;;;;9.77;66.55;99511.47;4958950;28;20026;-79
2021/10/02 03:43:48;;;;;;;0.70;0.30;;;;;;;9.73;66.60;99502.22;4982676;28;20030;-79
2021/10/02 03:46:21;;;;;;;0.30;0.30;;;;;;;9.76;66.59;99509.84;4946006;28;20034;-81
2021/10/02 03:48:57;;;;;;;;;;;;;;;;;;;;;
2021/10/02 03:51:23;;;;;;;1.15;0.50;;;;;;;9.76;66.86;99498.91;4980225;28;20572;-79
2021/10/02 03:54:36;;;;;;;;;;;;;;;;;;;;;
2021/10/02 03:57:10;;;;;;;0.47;0.28;;;;;;;9.79;67.14;99480.03;4981531;28;20121;-79
2021/10/02 03:59:56;;;;;;;1.65;0.30;;;;;;;9.70;66.77;99472.75;4955680;28;20023;-81
2021/10/02 04:02:24;;;;;;;4.10;0.40;;;;;;;9.67;66.63;99462.41;4948154;28;20041;-79
2021/10/02 04:04:52;;;;;;;0.65;0.30;;;;;;;9.79;67.47;99487.41;4970651;28;20037;-78
2021/10/02 04:07:30;;;;;;;;;;;;;;;;;;;;;
2021/10/02 04:10:21;;;;;;;2.67;0.60;;;;;;;9.76;67.63;99477.06;4969397;28;20114;-80
2021/10/02 04:12:49;;;;;;;4.50;0.47;;;;;;;9.73;67.31;99469.44;4957469;28;20019;-80
2021/10/02 04:15:19;;;;;;;0.68;0.32;;;;;;;9.72;67.52;99459.63;4959786;28;20366;-77
2021/10/02 04:18:03;;;;;;;1.35;0.60;;;;;;;9.65;67.85;99437.28;4963869;28;20030;-78
2021/10/02 04:20:29;;;;;;;3.83;0.35;;;;;;;9.76;68.02;99445.13;4947671;28;20041;-77
2021/10/02 04:22:55;;;;;;;0.73;0.30;;;;;;;9.88;68.05;99452.94;4955904;28;20110;-78
2021/10/02 04:25:30;;;;;;;;;;;;;;;;;;;;;
2021/10/02 04:27:56;;;;;;;1.05;0.70;;;;;;;9.92;67.97;99448.53;4967910;28;21540;-78
2021/10/02 04:30:52;;;;;;;;;;;;;;;;;;;;;
2021/10/02 04:33:25;;;;;;;0.40;0.32;;;;;;;9.88;68.35;99430.28;4970585;28;20078;-79
2021/10/02 04:35:50;;;;;;;0.40;0.20;;;;;;;9.83;68.38;99414.75;4965252;28;20408;-79
2021/10/02 04:38:18;;;;;;;0.20;0.15;;;;;;;9.93;68.12;99422.06;4945061;28;20069;-77
2021/10/02 04:40:54;;;;;;;;;;;;;;;;;;;;;
2021/10/02 04:43:26;;;;;;;0.73;0.30;;;;;;;9.90;68.26;99417.97;4980167;28;20540;-78
2021/10/02 04:46:02;;;;;;;2.58;0.30;;;;;;;9.96;67.92;99419.56;4976695;28;20027;-78
2021/10/02 04:48:35;;;;;;;0.38;0.30;;;;;;;9.83;68.16;99398.38;4964239;28;20428;-78
2021/10/02 04:51:11;;;;;;;1.90;0.57;;;;;;;9.78;68.13;99388.31;4963625;28;20027;-78
2021/10/02 04:53:55;;;;;;;;;;;;;;;;;;;;;
2021/10/02 04:56:21;;;;;;;1.58;0.50;;;;;;;9.85;68.72;99387.16;4975459;28;20116;-78
2021/10/02 04:59:00;;;;;;;0.60;0.32;;;;;;;9.95;68.85;99398.81;4970301;28;20094;-79
2021/10/02 05:01:26;;;;;;;1.25;0.50;;;;;;;9.94;68.67;99385.44;4961031;28;20057;-78
2021/10/02 05:03:58;;;;;;;1.80;0.28;;;;;;;10.04;68.64;99382.63;4954200;28;20023;-76
2021/10/02 05:06:24;;;;;;;0.82;0.57;;;;;;;10.11;68.62;99372.16;4977305;28;20030;-78
2021/10/02 05:08:50;;;;;;;1.38;0.50;;;;;;;10.09;69.02;99360.72;4959009;28;20045;-79
2021/10/02 05:11:16;;;;;;;0.52;0.50;;;;;;;10.12;68.53;99353.88;4947668;28;20031;-79
2021/10/02 05:13:42;;;;;;;0.65;0.35;;;;;;;10.11;68.62;99341.31;4976003;28;20032;-79
2021/10/02 05:16:07;;;;;;;1.30;0.40;;;;;;;10.20;68.86;99341.50;4976419;28;20038;-79
2021/10/02 05:18:46;;;;;;;;;;;;;;;;;;;;;
2021/10/02 05:21:25;;;;;;;;;;;;;;;;;;;;;
2021/10/02 05:23:58;;;;;;;1.98;0.63;;;;;;;10.38;68.96;99345.41;4957949;28;20048;-80
2021/10/02 05:26:49;;;;;;;1.67;0.50;;;;;;;10.33;68.82;99304.47;4960757;28;20031;-80
2021/10/02 05:29:17;;;;;;;3.95;0.75;;;;;;;10.36;68.74;99309.38;4951269;28;20460;-79
2021/10/02 05:31:42;;;;;;;3.33;0.60;;;;;;;10.37;69.20;99294.63;4977666;28;20500;-79
2021/10/02 05:34:08;;;;;;;1.40;0.50;;;;;;;10.38;69.17;99279.81;4961417;28;20034;-80
2021/10/02 05:36:42;;;;;;;5.15;0.90;;;;;;;10.46;69.10;99288.19;4979336;28;20096;-78
2021/10/02 05:39:16;;;;;;;2.88;0.40;;;;;;;10.48;69.16;99280.53;4956223;28;20023;-79
2021/10/02 05:41:42;;;;;;;4.85;0.93;;;;;;;10.69;69.06;99301.28;4956551;28;20031;-79
2021/10/02 05:44:37;;;;;;;;;;;;;;;;;;;;;
2021/10/02 05:47:12;;;;;;;1.50;0.60;;;;;;;10.81;68.79;99321.63;4958237;28;20027;-79
2021/10/02 05:50:11;;;;;;;;;;;;;;;;;;;;;
2021/10/02 05:52:36;;;;;;;3.53;0.70;;;;;;;10.85;69.05;99258.97;4966753;28;20110;-79
2021/10/02 05:55:12;;;;;;;4.82;0.90;;;;;;;10.88;68.80;99260.28;4959867;28;20109;-80
2021/10/02 05:57:38;;;;;;;1.42;0.30;;;;;;;10.86;68.33;99243.34;4972226;28;20099;-78
2021/10/02 06:00:07;;;;;;;1.75;0.55;;;;;;;10.93;68.28;99241.88;4961449;28;20508;-79
2021/10/02 06:02:33;;;;;;;3.13;0.43;;;;;;;10.99;68.05;99257.13;4965604;28;20745;-79
2021/10/02 06:05:16;;;;;;;3.88;0.52;;;;;;;10.99;68.35;99239.88;4976591;28;20035;-78
2021/10/02 06:07:51;;;;;;;2.33;0.55;;;;;;;11.04;68.31;99230.75;4975933;28;20039;-77
2021/10/02 06:10:24;;;;;;;2.97;0.73;;;;;;;11.11;68.30;99242.13;4970235;28;20031;-78
2021/10/02 06:13:08;;;;;;;;;;;;;;;;;;;;;
2021/10/02 06:15:34;;;;;;;0.40;0.20;;;;;;;11.16;67.78;99225.66;4971625;28;20030;-78
2021/10/02 06:18:07;;;;;;;3.75;0.60;;;;;;;11.24;67.69;99221.41;4957286;28;20139;-77
2021/10/02 06:20:33;;;;;;;0.93;0.50;;;;;;;11.23;67.22;99211.56;4971801;28;20027;-77
2021/10/02 06:23:00;;;;;;;2.63;0.47;;;;;;;11.43;67.08;99237.78;4964629;28;20027;-77
2021/10/02 06:25:29;;;;;;;1.83;0.50;;;;;;;11.42;67.23;99236.16;4973600;28;20031;-77
2021/10/02 06:27:54;;;;;;;5.47;0.60;;;;;;;11.45;66.85;99230.91;4971518;28;20026;-78
2021/10/02 06:30:35;;;;;;;;;;;;;;;;;;;;;
2021/10/02 06:33:01;;;;;;;1.52;0.50;;;;;;;11.59;66.62;99232.84;4982743;28;20053;-79
2021/10/02 06:35:27;;;;;;;3.90;0.25;;;;;;;11.59;66.82;99225.44;4971354;28;20030;-78
2021/10/02 06:37:52;;;;;;;2.00;0.60;;;;;;;11.63;66.51;99211.97;4980376;28;20023;-78
2021/10/02 06:40:18;;;;;;;4.38;0.63;;;;;;;11.67;66.72;99200.09;4969709;28;20401;-78
2021/10/02 06:42:43;;;;;;;5.00;0.50;;;;;;;11.65;66.75;99191.38;4972065;28;20035;-78
2021/10/02 06:45:09;;;;;;;4.47;0.63;;;;;;;11.68;65.89;99177.09;4976125;28;20038;-77
2021/10/02 06:47:37;;;;;;;2.25;0.35;;;;;;;11.71;66.29;99170.19;4972685;28;20023;-79
2021/10/02 06:50:03;;;;;;;7.03;0.98;;;;;;;11.78;65.84;99156.88;4956640;28;20105;-78
2021/10/02 06:52:33;;;;;;;2.92;0.60;;;;;;;11.80;66.48;99126.47;4973540;28;20480;-77
2021/10/02 06:55:02;;;;;;;1.48;0.40;;;;;;;11.86;65.82;99104.13;4975525;28;20034;-78
2021/10/02 06:57:35;;;;;;;1.02;0.28;;;;;;;11.90;65.75;99104.34;4975901;28;20035;-78
2021/10/02 07:00:19;;;;;;;0.82;0.40;;;;;;;11.94;65.81;99101.81;4973812;28;20114;-78
2021/10/02 07:02:45;;;;;;;3.38;0.85;;;;;;;11.93;65.24;99081.84;4970511;28;20026;-79
2021/10/02 07:05:17;;;;;;;2.15;0.40;;;;;;;12.11;65.75;99092.97;4971817;28;20505;-79
2021/10/02 07:07:43;;;;;;;3.70;0.40;;;;;;;12.15;65.03;99099.44;4971535;28;20031;-76
2021/10/02 07:10:19;;;;;;;1.25;0.43;;;;;;;12.14;64.97;99089.59;4971526;28;20551;-73
2021/10/02 07:12:45;;;;;;;1.63;0.65;;;;;;;12.25;64.90;99082.78;4958208;28;20034;-71
2021/10/02 07:15:11;;;;;;;1.92;0.50;;;;;;;12.31;64.88;99087.00;4972355;28;20030;-73
2021/10/02 07:17:36;;;;;;;1.83;0.63;;;;;;;12.35;64.67;99088.00;4963565;28;20038;-72
2021/10/02 07:20:02;;;;;;;2.60;0.68;;;;;;;12.37;64.82;99083.03;4969086;28;20038;-73
2021/10/02 07:22:40;;;;;;;8.13;0.70;;;;;;;12.45;64.69;99069.69;4964007;28;20090;-73
2021/10/02 07:25:29;;;;;;;1.98;0.77;;;;;;;12.46;64.65;99060.34;4970018;28;20528;-74
2021/10/02 07:27:54;;;;;;;2.33;0.65;;;;;;;12.42;65.09;99043.69;4933800;28;20037;-72
2021/10/02 07:30:29;;;;;;;3.72;0.65;;;;;;;12.50;65.05;99053.09;4955126;28;20023;-72
2021/10/02 07:32:57;;;;;;;1.23;0.43;;;;;;;12.48;65.09;99041.66;4965373;28;20067;-75
2021/10/02 07:35:23;;;;;;;1.40;0.30;;;;;;;12.62;64.37;99047.88;4964969;28;20465;-73
2021/10/02 07:37:52;;;;;;;2.08;0.30;;;;;;;12.64;64.90;99034.66;4979339;28;20038;-74
2021/10/02 07:40:28;;;;;;;;;;;;;;;;;;;;;
2021/10/02 07:42:56;;;;;;;1.38;0.77;;;;;;;12.80;65.60;99053.47;4959663;28;20037;-74
2021/10/02 07:45:26;;;;;;;3.65;0.68;;;;;;;12.70;65.47;99021.59;4959189;28;20031;-74
2021/10/02 07:47:53;;;;;;;3.28;0.70;;;;;;;12.77;65.80;99027.47;4961730;28;20033;-73
2021/10/02 07:50:22;;;;;;;7.07;0.68;;;;;;;12.81;66.58;99028.47;4962789;28;20050;-73
2021/10/02 07:52:49;;;;;;;4.47;0.38;;;;;;;12.81;66.51;99019.44;4967954;28;20067;-74
2021/10/02 07:55:16;;;;;;;1.23;0.77;;;;;;;12.82;66.97;99015.53;4956405;28;20114;-73
2021/10/02 07:57:44;;;;;;;0.50;0.30;;;;;;;12.83;67.46;98998.75;4959894;28;20024;-73
2021/10/02 08:00:13;;;;;;;1.00;0.45;;;;;;;12.82;67.41;98988.09;4959741;28;20126;-75
2021/10/02 08:02:45;;;;;;;0.88;0.35;;;;;;;12.85;67.77;98988.31;4961687;28;20065;-74
2021/10/02 08:05:12;;;;;;;1.67;0.30;;;;;;;12.87;68.23;98982.50;4952737;28;20027;-73
2021/10/02 08:07:44;;;;;;;2.17;0.60;;;;;;;12.87;68.32;98971.53;4964189;28;20061;-74
2021/10/02 08:10:12;;;;;;;3.33;0.70;;;;;;;12.89;68.41;98964.59;4964333;28;20036;-73
2021/10/02 08:12:38;;;;;;;2.13;0.60;;;;;;;12.92;69.83;98954.91;4964624;28;20381;-73
2021/10/02 08:15:05;;;;;;;6.38;0.80;;;;;;;12.91;70.52;98956.03;4977115;28;20046;-72
2021/10/02 08:17:33;;;;;;;1.10;0.63;;;;;;;12.88;71.17;98932.00;4966701;28;20453;-73
2021/10/02 08:20:08;;;;;;;4.15;0.85;;;;;;;12.88;72.23;98926.50;4961872;28;20422;-73
2021/10/02 08:22:45;;;;;;;2.90;1.15;;;;;;;12.85;72.87;98914.22;4962386;28;20039;-74
2021/10/02 08:25:13;;;;;;;2.13;0.60;;;;;;;12.88;73.23;98904.56;4975939;28;20051;-73
2021/10/02 08:27:41;;;;;;;2.72;0.70;;;;;;;12.89;73.24;98903.41;4959019;28;20080;-73
2021/10/02 08:30:08;;;;;;;3.70;0.70;;;;;;;12.91;74.04;98884.72;4962795;28;20031;-74
2021/10/02 08:32:34;;;;;;;4.55;0.70;;;;;;;12.94;74.42;98881.34;4960519;28;20153;-72
2021/10/02 08:34:59;;;;;;;5.18;1.13;;;;;;;12.96;75.04;98875.53;4964886;28;20035;-73
2021/10/02 08:37:27;;;;;;;4.68;0.70;;;;;;;12.95;75.90;98869.22;4965480;28;20023;-75
2021/10/02 08:39:53;;;;;;;7.35;0.80;;;;;;;12.95;76.68;98852.75;4968091;28;20039;-72
2021/10/02 08:42:20;;;;;;;1.55;0.77;;;;;;;12.96;77.06;98854.38;4960190;28;20031;-74
2021/10/02 08:44:50;;;;;;;5.47;1.00;;;;;;;12.96;77.27;98850.84;4967447;28;20481;-76
2021/10/02 08:47:19;;;;;;;12.02;1.95;;;;;;;12.99;77.01;98848.25;4971378;28;20030;-73
2021/10/02 08:49:46;;;;;;;7.22;0.63;;;;;;;13.02;77.61;98842.09;4972084;28;20041;-73
2021/10/02 08:52:14;;;;;;;4.15;1.30;;;;;;;13.01;78.23;98853.41;4973522;28;20101;-75
2021/10/02 08:54:44;;;;;;;9.75;1.13;;;;;;;13.03;78.41;98838.25;4967149;28;20031;-74
2021/10/02 08:57:12;;;;;;;5.07;1.00;;;;;;;13.03;78.37;98841.00;4965376;28;20151;-73
2021/10/02 08:59:39;;;;;;;13.00;1.73;;;;;;;13.03;78.94;98832.75;4965299;28;20038;-75
2021/10/02 09:02:08;;;;;;;6.22;1.42;;;;;;;12.99;79.31;98822.75;4972403;28;20027;-72
2021/10/02 09:04:34;;;;;;;4.30;1.45;;;;;;;12.95;80.33;98808.06;4968110;28;20039;-73
2021/10/02 09:07:01;;;;;;;5.72;1.20;;;;;;;12.89;80.89;98794.50;4967179;28;20023;-73
2021/10/02 09:09:26;;;;;;;5.85;1.45;;;;;;;12.94;81.23;98807.25;4949216;28;20026;-73
2021/10/02 09:11:52;;;;;;;11.98;1.45;;;;;;;12.94;82.16;98796.28;4967271;28;20033;-74
2021/10/02 09:14:18;;;;;;;3.63;1.15;;;;;;;12.99;82.29;98807.09;4977482;28;20023;-74
2021/10/02 09:16:44;;;;;;;5.35;1.08;;;;;;;13.03;82.22;98769.66;4968875;28;20070;-74
2021/10/02 09:19:10;;;;;;;8.35;1.42;;;;;;;13.02;81.99;98757.03;4979103;28;20109;-74
2021/10/02 09:21:55;;;;;;;4.05;1.33;;;;;;;13.12;81.85;98763.34;4982575;28;20031;-73
2021/10/02 09:24:22;;;;;;;5.55;1.30;;;;;;;13.12;82.49;98741.41;4974788;28;20059;-74
2021/10/02 09:26:48;;;;;;;5.25;1.40;;;;;;;13.09;82.41;98731.88;4970323;28;20031;-74
2021/10/02 09:29:16;;;;;;;8.43;1.65;;;;;;;13.15;83.18;98740.75;4963790;28;20027;-73
2021/10/02 09:31:42;;;;;;;3.95;1.00;;;;;;;13.15;83.24;98725.09;4971545;28;20033;-74
2021/10/02 09:34:20;;;;;;;4.72;1.10;;;;;;;13.21;82.97;98717.50;4968979;28;20031;-73
2021/10/02 09:36:46;;;;;;;3.15;1.23;;;;;;;13.17;83.53;98705.53;4966594;28;20465;-72
2021/10/02 09:39:11;;;;;;;5.20;1.02;;;;;;;13.23;83.81;98693.28;4969334;28;20066;-72
2021/10/02 09:41:47;;;;;;;7.65;1.42;;;;;;;13.25;83.48;98688.25;4973258;28;20473;-73
2021/10/02 09:44:21;;;;;;;7.15;1.20;;;;;;;13.26;83.91;98678.91;4970436;28;20058;-72
2021/10/02 09:46:46;;;;;;;9.07;1.20;;;;;;;13.28;84.34;98663.69;4962389;28;20050;-72
2021/10/02 09:49:12;;;;;;;6.25;1.27;;;;;;;13.33;83.92;98661.91;4975004;28;20384;-72
2021/10/02 09:51:43;;;;;;;4.53;1.00;;;;;;;13.34;84.24;98655.31;4972326;28;20741;-74
2021/10/02 09:54:38;;;;;;;6.00;1.25;;;;;;;13.39;84.00;98653.22;4975534;28;20043;-71
2021/10/02 09:57:09;;;;;;;1.85;0.77;;;;;;;13.35;84.17;98630.31;4974642;28;20027;-73
2021/10/02 09:59:34;;;;;;;2.67;1.02;;;;;;;13.40;84.55;98615.59;4973240;28;20029;-72
2021/10/02 10:02:13;;;;;;;1.85;0.60;;;;;;;13.41;84.18;98596.03;4970787;28;20393;-71
2021/10/02 10:04:39;;;;;;;4.90;1.10;;;;;;;13.39;84.27;98595.56;4980242;28;20121;-72
2021/10/02 10:07:08;;;;;;;1.13;0.40;;;;;;;13.34;84.09;98573.78;4970101;28;20114;-72
2021/10/02 10:09:39;;;;;;;0.77;0.30;;;;;;;13.40;84.44;98569.72;4974066;28;20377;-72
2021/10/02 10:12:06;;;;;;;2.20;0.43;;;;;;;13.40;85.43;98575.22;4970683;28;20174;-72
2021/10/02 10:14:34;;;;;;;1.75;0.35;;;;;;;13.43;85.24;98577.31;4966455;28;20050;-72
2021/10/02 10:17:00;;;;;;;2.10;0.28;;;;;;;13.46;85.67;98558.56;4961446;28;20058;-72
2021/10/02 10:19:28;;;;;;;1.05;0.30;;;;;;;13.45;85.87;98552.25;4971534;28;20059;-73
2021/10/02 10:22:23;;;;;;;0.40;0.20;;;;;;;13.52;85.25;98541.56;4965831;28;20024;-76
2021/10/02 10:24:52;;;;;;;0.20;0.20;;;;;;;13.52;85.47;98540.75;4940703;28;20160;-75
2021/10/02 10:27:39;;;;;;;2.83;0.20;;;;;;;13.58;86.02;98517.44;4971872;28;20504;-73
2021/10/02 10:30:10;;;;;;;0.60;0.30;;;;;;;13.54;86.16;98505.53;4971954;28;20500;-75
2021/10/02 10:32:55;;;;;;;0.20;0.10;;;;;;;13.48;85.89;98488.44;4975520;28;20384;-75
2021/10/02 10:35:25;;;;;;;2.33;0.35;;;;;;;13.50;86.06;98494.41;4967807;28;20436;-76
2021/10/02 10:37:50;;;;;;;0.30;0.20;;;;;;;13.42;85.97;98471.38;4965003;28;20057;-75
2021/10/02 10:40:16;;;;;;;0.30;0.20;;;;;;;13.48;86.06;98462.91;4971909;28;20049;-75
2021/10/02 10:42:42;;;;;;;1.08;0.68;;;;;;;13.48;86.17;98447.25;4973486;28;20350;-74
2021/10/02 10:45:08;;;;;;;0.65;0.57;;;;;;;13.48;86.05;98429.97;4959332;28;20039;-77
2021/10/02 10:47:34;;;;;;;0.50;0.30;;;;;;;13.55;86.85;98431.06;4976354;28;20365;-76
2021/10/02 10:50:00;;;;;;;0.52;0.20;;;;;;;13.59;86.39;98392.75;4952647;28;20130;-74
2021/10/02 10:52:26;;;;;;;1.33;0.50;;;;;;;13.63;86.38;98396.44;4954596;28;20417;-73
2021/10/02 10:54:53;;;;;;;2.30;0.40;;;;;;;13.62;86.62;98397.56;4964845;28;20129;-74
2021/10/02 10:57:35;;;;;;;3.55;0.70;;;;;;;13.64;86.54;98378.00;4964498;28;20027;-77
2021/10/02 11:00:04;;;;;;;2.05;0.35;;;;;;;13.60;86.45;98372.38;4977529;28;21157;-76
2021/10/02 11:02:41;;;;;;;2.92;0.50;;;;;;;13.61;86.93;98360.28;4978210;28;20488;-77
2021/10/02 11:05:35;;;;;;;0.50;0.40;;;;;;;13.59;86.98;98337.81;4976682;28;20045;-78
2021/10/02 11:08:11;;;;;;;4.35;0.75;;;;;;;13.58;86.99;98337.03;4964975;28;20035;-75
2021/10/02 11:10:42;;;;;;;1.58;0.88;;;;;;;13.55;87.25;98326.72;4978794;28;20043;-78
2021/10/02 11:13:10;;;;;;;1.25;0.70;;;;;;;13.55;87.29;98306.69;4967618;28;20404;-76
2021/10/02 11:15:35;;;;;;;2.00;0.70;;;;;;;13.55;87.17;98296.50;4970773;28;20074;-74
2021/10/02 11:18:01;;;;;;;5.15;1.30;;;;;;;13.61;87.11;98291.63;4969882;28;20098;-75
2021/10/02 11:20:30;;;;;;;0.70;0.43;;;;;;;13.60;87.25;98284.50;4965257;28;20135;-77
2021/10/02 11:26:23;;;;;;;5.53;0.57;;;;;;;13.68;87.41;98267.16;4981238;28;20105;-75
2021/10/02 11:29:18;;;;;;;1.75;0.65;;;;;;;13.79;87.81;98276.53;4970133;28;20503;-75
2021/10/02 11:31:43;;;;;;;2.65;0.45;;;;;;;13.83;87.36;98275.84;4939292;28;20043;-73
2021/10/02 11:34:21;;;;;;;1.55;0.80;;;;;;;13.89;87.80;98252.53;4959874;28;20131;-75
2021/10/02 11:36:54;;;;;;;1.08;0.63;;;;;;;13.95;87.35;98235.47;4958464;28;20018;-76
2021/10/02 11:39:26;;;;;;;7.18;0.60;;;;;;;14.00;87.66;98233.66;4962193;28;20054;-76
2021/10/02 11:41:57;;;;;;;4.70;0.82;;;;;;;14.04;87.86;98235.38;4963868;28;20038;-82
2021/10/02 11:44:32;;;;;;;1.23;0.50;;;;;;;14.12;88.13;98228.19;4958854;28;20035;-77
2021/10/02 11:47:23;;;;;;;2.15;0.32;;;;;;;14.22;88.02;98215.91;4972762;28;20027;-77
2021/10/02 11:50:07;;;;;;;0.20;0.20;;;;;;;14.20;87.64;98196.22;4946175;28;20039;-75
2021/10/02 11:52:34;;;;;;;1.10;0.30;;;;;;;14.32;87.59;98194.28;4956058;28;20034;-71
2021/10/02 11:56:07;;;;;;;0.28;0.10;;;;;;;14.41;87.65;98193.31;4980645;28;20110;-75
2021/10/02 11:58:39;;;;;;;0.45;0.13;;;;;;;14.45;87.88;98184.03;4961532;28;20090;-76
2021/10/02 12:01:05;;;;;;;1.65;0.35;;;;;;;14.34;87.70;98152.69;4960503;28;20584;-78
2021/10/02 12:03:41;;;;;;;0.30;0.30;;;;;;;14.48;88.14;98166.88;4959351;28;20054;-78
2021/10/02 12:06:07;;;;;;;0.88;0.30;;;;;;;14.43;87.84;98145.09;4968563;28;20101;-76
2021/10/02 12:08:33;;;;;;;0.57;0.20;;;;;;;14.61;87.98;98158.56;4977266;28;20479;-74
2021/10/02 12:11:09;;;;;;;3.50;0.50;;;;;;;14.58;88.08;98146.31;4951700;28;20466;-73
2021/10/02 12:13:52;;;;;;;1.98;0.22;;;;;;;14.64;88.16;98144.16;4969517;28;20539;-75
2021/10/02 12:16:30;;;;;;;3.20;0.75;;;;;;;14.60;88.34;98162.47;4970445;28;20043;-73
2021/10/02 12:19:13;;;;;;;0.52;0.20;;;;;;;14.53;88.67;98121.81;4973575;28;20026;-74
2021/10/02 12:21:45;;;;;;;2.45;0.60;;;;;;;14.50;89.33;98133.53;4981903;28;20099;-73
2021/10/02 12:24:32;;;;;;;0.40;0.28;;;;;;;14.52;89.47;98130.41;4974703;28;20408;-73
2021/10/02 12:27:10;;;;;;;0.47;0.25;;;;;;;14.47;89.72;98129.50;4970785;28;20526;-75
2021/10/02 12:29:57;;;;;;;0.28;0.20;;;;;;;14.49;89.56;98110.69;4970897;28;20037;-76
2021/10/02 12:32:56;;;;;;;1.27;0.40;;;;;;;14.33;89.44;98079.59;4960894;28;20033;-76
2021/10/02 12:36:18;;;;;;;0.43;0.40;;;;;;;14.40;89.64;98101.81;4956965;28;20737;-77
2021/10/02 12:38:43;;;;;;;0.77;0.50;;;;;;;14.24;89.35;98076.19;4966850;28;20046;-74
2021/10/02 12:41:19;;;;;;;0.60;0.43;;;;;;;14.29;89.61;98089.69;4974289;28;20820;-74
2021/10/02 12:43:48;;;;;;;4.43;0.52;;;;;;;14.05;89.33;98044.63;4979346;28;20033;-74
2021/10/02 12:46:18;;;;;;;0.75;0.40;;;;;;;14.11;89.21;98059.72;4985074;28;20015;-77
2021/10/02 12:48:46;;;;;;;0.65;0.30;;;;;;;14.17;89.96;98070.50;4981650;28;20035;-75
2021/10/02 12:51:12;;;;;;;1.35;0.55;;;;;;;14.12;89.63;98055.84;4988944;28;20062;-76
2021/10/02 12:53:40;;;;;;;1.17;0.40;;;;;;;14.08;89.97;98040.38;4980015;28;20034;-76
2021/10/02 12:56:18;;;;;;;0.30;0.30;;;;;;;14.07;89.61;98036.81;4982570;28;20030;-74
2021/10/02 12:58:46;;;;;;;0.60;0.60;;;;;;;14.06;90.13;98016.00;4980487;28;20031;-74
2021/10/02 13:01:12;;;;;;;0.45;0.45;;;;;;;14.06;89.88;98013.25;4978454;28;20046;-77
2021/10/02 13:03:39;;;;;;;1.17;0.60;;;;;;;13.99;89.92;98040.53;4963666;28;20031;-77
2021/10/02 13:06:05;;;;;;;0.45;0.45;;;;;;;14.03;90.01;98018.63;4986328;28;20030;-79
2021/10/02 13:08:32;;;;;;;0.40;0.20;;;;;;;14.08;89.95;98021.94;4976499;28;20035;-79
2021/10/02 13:10:58;;;;;;;0.73;0.35;;;;;;;14.07;90.09;98031.31;4982787;28;20034;-77
2021/10/02 13:13:31;;;;;;;1.40;0.50;;;;;;;14.06;89.72;97982.22;4977666;28;20081;-76
2021/10/02 13:16:00;;;;;;;0.70;0.70;;;;;;;13.94;90.57;97963.81;4980561;28;20043;-74
2021/10/02 13:18:31;;;;;;;0.57;0.57;;;;;;;14.07;90.11;97961.84;4960407;28;20066;-77
2021/10/02 13:21:33;;;;;;;0.65;0.60;;;;;;;14.08;90.22;97980.72;4994241;28;20037;-75
2021/10/02 13:24:11;;;;;;;0.80;0.55;;;;;;;14.12;90.07;97965.16;5003749;28;20033;-76
2021/10/02 13:26:53;;;;;;;1.85;0.65;;;;;;;14.09;89.52;97943.03;4986853;28;20045;-74
2021/10/02 13:29:45;;;;;;;0.60;0.50;;;;;;;13.95;90.07;97889.28;4976687;28;20027;-75
2021/10/02 13:32:37;;;;;;;0.50;0.50;;;;;;;14.03;90.19;97890.31;4974443;28;20038;-73
2021/10/02 13:35:15;;;;;;;1.02;0.55;;;;;;;14.04;90.43;97875.41;4988466;28;20137;-74
2021/10/02 13:37:45;;;;;;;0.93;0.77;;;;;;;14.20;90.39;97896.63;4998867;28;20424;-77
2021/10/02 13:40:58;;;;;;;;;;;;;;;;;;;;;
2021/10/02 13:43:33;;;;;;;;;;;;;;;;;;;;;
2021/10/02 13:46:05;;;;;;;0.50;0.50;;;;;;;14.31;89.76;97851.78;4979394;28;20105;-75
2021/10/02 13:48:57;;;;;;;1.02;0.55;;;;;;;14.43;90.02;97852.84;5001090;28;20026;-74